Time;durP1;ratioP1;P1;durP2;ratioP2;P2;SDS_P1;SDS_P2;PMS_P1;PMS_P2;Temp;Humidity;BMP_temperature;BMP_pressure;BME280_temperature;BME280_humidity;BME280_pressure;Samples;Min_cycle;Max_cycle;Signal;HPM_P1;HPM_P2
2021/11/07 00:11:34;;;;;;;7.13;4.80;;;;;;;8.59;100.00;101816.78;5073685;28;20063;-35
2021/11/07 00:14:00;;;;;;;6.60;5.22;;;;;;;8.58;100.00;101815.94;5073768;28;20262;-35
2021/11/07 00:16:28;;;;;;;8.25;4.38;;;;;;;8.57;100.00;101808.91;5073715;28;20379;-35
2021/11/07 00:19:05;;;;;;;7.03;4.63;;;;;;;8.54;100.00;101811.13;5073144;28;20044;-35
2021/11/07 00:21:38;;;;;;;8.00;5.43;;;;;;;8.49;100.00;101795.53;5073628;28;20035;-35
2021/11/07 00:24:08;;;;;;;6.63;5.18;;;;;;;8.58;100.00;101815.13;5074119;28;20395;-35
2021/11/07 00:26:45;;;;;;;6.47;4.60;;;;;;;8.58;100.00;101820.50;5073798;28;20028;-35
2021/11/07 00:29:20;;;;;;;7.30;5.63;;;;;;;8.57;100.00;101808.91;5073886;28;20025;-36
2021/11/07 00:37:04;;;;;;;7.70;5.68;;;;;;;8.58;100.00;101807.03;5073443;28;20394;-35
2021/11/07 00:42:48;;;;;;;8.50;5.75;;;;;;;8.48;100.00;101783.09;5071021;28;20037;-35
2021/11/07 00:48:17;;;;;;;7.15;5.90;;;;;;;8.59;100.00;101806.00;5070850;28;20036;-35
2021/11/07 00:51:11;;;;;;;10.80;6.72;;;;;;;8.59;100.00;101806.84;5071527;28;20205;-35
2021/11/07 01:01:36;;;;;;;8.85;7.63;;;;;;;8.54;100.00;101787.75;5070998;28;20037;-35
2021/11/07 01:04:03;;;;;;;8.85;7.40;;;;;;;8.60;100.00;101791.50;5070748;28;20047;-35
2021/11/07 01:06:30;;;;;;;9.45;8.35;;;;;;;8.62;100.00;101800.22;5070656;28;20068;-35
2021/11/07 01:08:56;;;;;;;12.88;8.50;;;;;;;8.61;100.00;101794.00;5070958;28;20048;-35
2021/11/07 01:11:21;;;;;;;8.83;7.93;;;;;;;8.63;100.00;101786.53;5070734;28;20107;-35
2021/11/07 01:13:47;;;;;;;10.05;8.23;;;;;;;8.65;100.00;101799.84;5072282;28;20044;-35
2021/11/07 01:16:13;;;;;;;8.52;7.72;;;;;;;8.66;100.00;101793.41;5072820;28;20036;-35
2021/11/07 01:18:38;;;;;;;8.68;7.82;;;;;;;8.67;100.00;101803.19;5073296;28;20024;-35
2021/11/07 01:21:04;;;;;;;11.23;9.07;;;;;;;8.68;100.00;101794.88;5073440;28;20078;-35
2021/11/07 01:26:20;;;;;;;9.63;8.73;;;;;;;8.65;100.00;101767.50;5072980;28;20055;-35
2021/11/07 01:28:48;;;;;;;9.93;9.00;;;;;;;8.73;100.00;101764.63;5072875;28;20047;-35
2021/11/07 01:31:14;;;;;;;10.50;9.45;;;;;;;8.73;100.00;101767.31;5074624;28;20025;-35
2021/11/07 01:33:39;;;;;;;12.23;10.63;;;;;;;8.74;100.00;101766.31;5077157;28;20054;-35
2021/11/07 01:38:49;;;;;;;11.43;10.10;;;;;;;8.74;100.00;101752.84;5077207;28;20044;-35
2021/11/07 01:43:42;;;;;;;12.98;11.57;;;;;;;8.70;100.00;101716.50;5076903;28;20028;-35
2021/11/07 01:46:27;;;;;;;12.88;11.52;;;;;;;8.81;100.00;101729.44;5076702;28;20028;-35
2021/11/07 01:49:11;;;;;;;13.77;12.48;;;;;;;8.82;100.00;101723.00;5077286;28;20033;-35
2021/11/07 01:51:46;;;;;;;14.82;13.40;;;;;;;8.82;100.00;101725.69;5076794;28;20085;-36
2021/11/07 01:54:24;;;;;;;15.02;13.55;;;;;;;8.76;100.00;101716.53;5076906;28;20468;-36
2021/11/07 01:56:49;;;;;;;15.73;13.60;;;;;;;8.83;100.00;101715.75;5076557;28;20081;-35
2021/11/07 01:59:16;;;;;;;15.17;13.57;;;;;;;8.85;100.00;101709.13;5077240;28;20464;-35
2021/11/07 02:01:42;;;;;;;16.42;14.70;;;;;;;8.84;100.00;101707.47;5076104;28;20025;-35
2021/11/07 02:04:07;;;;;;;17.58;15.63;;;;;;;8.86;100.00;101701.88;5076080;28;20051;-35
2021/11/07 02:06:33;;;;;;;16.67;14.98;;;;;;;8.80;100.00;101689.19;5075939;28;20028;-35
2021/11/07 02:08:58;;;;;;;16.70;14.55;;;;;;;8.87;100.00;101696.25;5076365;28;20044;-35
2021/11/07 02:11:24;;;;;;;18.70;15.63;;;;;;;8.81;100.00;101688.16;5076618;28;20383;-35
2021/11/07 02:13:50;;;;;;;18.30;14.93;;;;;;;8.88;100.00;101697.97;5076500;28;20039;-35
2021/11/07 02:16:18;;;;;;;17.65;15.80;;;;;;;8.90;100.00;101687.78;5075721;28;20471;-35
2021/11/07 02:18:44;;;;;;;18.83;16.50;;;;;;;8.71;100.00;101648.06;5076307;28;20450;-35
2021/11/07 02:21:09;;;;;;;;;;;;;;;8.95;100.00;101676.41;5076374;28;20024;-35
2021/11/07 02:23:35;;;;;;;20.10;15.87;;;;;;;8.93;100.00;101675.75;5076260;28;19977;-35
2021/11/07 02:26:07;;;;;;;18.63;16.73;;;;;;;8.92;100.00;101650.66;5075899;28;20267;-35
2021/11/07 02:28:40;;;;;;;19.70;16.85;;;;;;;8.93;100.00;101652.34;5074890;28;20028;-35
2021/11/07 02:31:08;;;;;;;19.13;17.13;;;;;;;8.75;100.00;101619.66;5076473;28;20094;-35
2021/11/07 02:33:35;;;;;;;20.08;17.75;;;;;;;8.85;100.00;101633.59;5076563;28;20375;-35
2021/11/07 02:36:13;;;;;;;20.15;17.95;;;;;;;8.94;100.00;101637.81;5075610;28;20075;-35
2021/11/07 02:38:39;;;;;;;21.77;17.67;;;;;;;8.87;100.00;101630.69;5075657;28;20036;-35
2021/11/07 02:41:07;;;;;;;19.63;17.50;;;;;;;8.99;100.00;101642.59;5075144;28;20029;-35
2021/11/07 02:43:48;;;;;;;20.17;18.08;;;;;;;9.02;100.00;101651.09;5074456;28;20028;-35
2021/11/07 02:46:17;;;;;;;19.88;17.77;;;;;;;8.92;100.00;101626.38;5075755;28;20037;-35
2021/11/07 02:48:48;;;;;;;21.25;17.60;;;;;;;9.02;100.00;101629.53;5075167;28;20037;-35
2021/11/07 02:51:14;;;;;;;20.48;18.23;;;;;;;9.04;100.00;101632.03;5075600;28;20032;-35
2021/11/07 02:53:40;;;;;;;22.92;18.67;;;;;;;8.98;100.00;101620.19;5075951;28;20025;-35
2021/11/07 02:56:06;;;;;;;21.52;18.90;;;;;;;9.07;100.00;101630.78;5075667;28;20031;-35
2021/11/07 02:58:32;;;;;;;21.30;18.65;;;;;;;9.06;100.00;101635.34;5075354;28;20059;-35
2021/11/07 03:00:58;;;;;;;24.67;20.77;;;;;;;9.08;100.00;101633.31;5075238;28;20384;-35
2021/11/07 03:03:24;;;;;;;27.27;20.85;;;;;;;9.03;100.00;101619.59;5075488;28;20028;-35
2021/11/07 03:05:49;;;;;;;24.42;20.90;;;;;;;9.06;100.00;101621.88;5075720;28;20118;-35
2021/11/07 03:08:15;;;;;;;23.27;20.07;;;;;;;9.10;100.00;101619.59;5075428;28;20036;-35
2021/11/07 03:10:40;;;;;;;24.27;19.37;;;;;;;9.12;100.00;101620.22;5075391;28;20050;-35
2021/11/07 03:13:12;;;;;;;24.60;20.30;;;;;;;9.13;100.00;101620.03;5075483;28;20518;-35
2021/11/07 03:15:42;;;;;;;25.80;21.27;;;;;;;9.03;100.00;101600.69;5075636;28;20035;-35
2021/11/07 03:18:10;;;;;;;23.75;20.88;;;;;;;9.12;100.00;101612.13;5075406;28;20028;-35
2021/11/07 03:20:36;;;;;;;25.65;21.00;;;;;;;9.11;100.00;101605.91;5074621;28;20039;-35
2021/11/07 03:23:03;;;;;;;25.48;20.45;;;;;;;9.03;100.00;101601.53;5075674;28;20033;-35
2021/11/07 03:25:28;;;;;;;25.27;21.00;;;;;;;9.09;100.00;101612.53;5075097;28;20025;-35
2021/11/07 03:27:54;;;;;;;24.13;20.75;;;;;;;9.05;100.00;101603.19;5075087;28;20357;-35
2021/11/07 03:36:06;;;;;;;26.65;22.35;;;;;;;9.13;100.00;101605.72;5072673;28;20048;-35
2021/11/07 03:38:32;;;;;;;25.38;22.48;;;;;;;9.14;100.00;101608.19;5072648;28;20040;-35
2021/11/07 03:40:57;;;;;;;26.55;22.33;;;;;;;9.14;100.00;101608.19;5072236;28;20072;-35
2021/11/07 03:43:27;;;;;;;28.17;23.40;;;;;;;9.08;100.00;101583.88;5072356;28;20591;-35
2021/11/07 03:45:53;;;;;;;27.83;24.67;;;;;;;9.12;100.00;101577.03;5071950;28;20060;-35
2021/11/07 03:48:18;;;;;;;28.10;24.47;;;;;;;9.22;100.00;101596.38;5072607;28;20032;-35
2021/11/07 03:50:45;;;;;;;27.97;22.90;;;;;;;9.23;100.00;101596.19;5071883;28;20075;-35
2021/11/07 03:53:11;;;;;;;27.35;23.60;;;;;;;9.24;100.00;101595.16;5071062;28;20036;-35
2021/11/07 03:55:37;;;;;;;29.00;23.35;;;;;;;9.25;100.00;101590.59;5071683;28;20071;-35
2021/11/07 03:58:02;;;;;;;25.75;23.05;;;;;;;9.18;100.00;101584.34;5072074;28;20033;-35
2021/11/07 04:00:28;;;;;;;30.10;22.80;;;;;;;9.26;100.00;101595.75;5071986;28;20043;-35
2021/11/07 04:02:54;;;;;;;27.88;23.58;;;;;;;9.23;100.00;101579.16;5072474;28;20131;-35
2021/11/07 04:05:21;;;;;;;27.75;24.73;;;;;;;9.26;100.00;101581.44;5071642;28;20412;-35
2021/11/07 04:07:46;;;;;;;27.55;24.30;;;;;;;9.26;100.00;101589.53;5071859;28;20032;-36
2021/11/07 04:10:12;;;;;;;32.90;25.50;;;;;;;9.28;100.00;101574.00;5071740;28;20055;-35
2021/11/07 04:12:38;;;;;;;29.67;25.05;;;;;;;9.24;100.00;101564.63;5072847;28;20064;-35
2021/11/07 04:15:05;;;;;;;31.58;26.10;;;;;;;9.26;100.00;101576.88;5074272;28;20036;-35
2021/11/07 04:17:31;;;;;;;29.92;26.13;;;;;;;9.29;100.00;101571.06;5073660;28;20179;-35
2021/11/07 04:19:56;;;;;;;29.92;26.58;;;;;;;9.31;100.00;101556.53;5073767;28;20066;-35
2021/11/07 04:22:21;;;;;;;29.55;26.40;;;;;;;9.32;100.00;101560.91;5073794;28;20031;-35
2021/11/07 04:24:47;;;;;;;30.73;25.50;;;;;;;9.32;100.00;101566.28;5074014;28;20032;-35
2021/11/07 04:27:13;;;;;;;29.27;25.88;;;;;;;9.33;100.00;101557.19;5074219;28;20036;-35
2021/11/07 04:29:38;;;;;;;31.63;26.23;;;;;;;9.17;100.00;101528.69;5073661;28;20051;-35
2021/11/07 04:32:04;;;;;;;29.93;26.40;;;;;;;9.25;100.00;101548.22;5074319;28;20017;-35
2021/11/07 04:34:30;;;;;;;30.42;26.83;;;;;;;9.25;100.00;101547.41;5073452;28;20123;-35
2021/11/07 04:36:56;;;;;;;32.05;26.98;;;;;;;9.35;100.00;101563.19;5073551;28;20142;-35
2021/11/07 04:39:23;;;;;;;31.65;27.30;;;;;;;9.35;100.00;101552.41;5073563;28;20032;-35
2021/11/07 04:41:49;;;;;;;33.22;27.50;;;;;;;9.33;100.00;101560.72;5073465;28;20073;-35
2021/11/07 04:44:15;;;;;;;37.22;28.10;;;;;;;9.37;100.00;101572.75;5073428;28;20024;-35
2021/11/07 04:46:40;;;;;;;33.43;28.80;;;;;;;9.39;100.00;101578.78;5073079;28;20039;-35
2021/11/07 04:49:06;;;;;;;33.35;27.30;;;;;;;9.40;100.00;101575.03;5073435;28;20517;-35
2021/11/07 04:51:31;;;;;;;33.97;26.47;;;;;;;9.40;100.00;101580.44;5072985;28;20050;-35
2021/11/07 04:53:57;;;;;;;30.73;26.42;;;;;;;9.40;100.00;101583.13;5072982;28;20263;-35
2021/11/07 04:56:22;;;;;;;31.23;26.73;;;;;;;9.24;100.00;101570.03;5073681;28;20024;-35
2021/11/07 04:58:48;;;;;;;39.00;27.57;;;;;;;9.41;100.00;101578.56;5072984;28;20032;-35
2021/11/07 05:01:13;;;;;;;35.90;28.60;;;;;;;9.35;100.00;101547.81;5073335;28;20033;-35
2021/11/07 05:03:39;;;;;;;30.27;26.60;;;;;;;9.42;100.00;101559.47;5073211;28;20027;-35
2021/11/07 05:06:04;;;;;;;37.42;27.05;;;;;;;9.44;100.00;101576.28;5072648;28;20035;-35
2021/11/07 05:08:29;;;;;;;35.20;27.00;;;;;;;9.41;100.00;101568.59;5073603;28;20074;-35
2021/11/07 05:10:55;;;;;;;35.33;27.00;;;;;;;9.44;100.00;101564.66;5074203;28;20444;-35
2021/11/07 05:13:21;;;;;;;36.63;27.17;;;;;;;9.40;100.00;101555.31;5073347;28;20020;-35
2021/11/07 05:15:46;;;;;;;39.23;27.40;;;;;;;9.44;100.00;101557.41;5073070;28;20025;-35
2021/11/07 05:18:12;;;;;;;32.57;24.83;;;;;;;9.45;100.00;101556.34;5073601;28;20032;-36
2021/11/07 05:20:37;;;;;;;31.13;25.30;;;;;;;9.32;100.00;101528.50;5072715;28;20062;-35
2021/11/07 05:23:03;;;;;;;34.47;25.25;;;;;;;9.43;100.00;101561.13;5073784;28;20043;-36
2021/11/07 05:25:29;;;;;;;33.60;26.43;;;;;;;9.43;100.00;101550.34;5072871;28;20541;-35
2021/11/07 05:27:55;;;;;;;36.25;25.50;;;;;;;9.42;100.00;101556.78;5072557;28;20027;-35
2021/11/07 05:30:20;;;;;;;32.00;24.88;;;;;;;9.39;100.00;101543.69;5073607;28;20055;-35
2021/11/07 05:32:46;;;;;;;32.20;24.40;;;;;;;9.32;100.00;101526.66;5072755;28;20108;-35
2021/11/07 05:35:15;;;;;;;31.42;23.95;;;;;;;9.25;100.00;101534.72;5073374;28;20031;-35
2021/11/07 05:37:40;;;;;;;34.50;24.13;;;;;;;9.39;100.00;101572.56;5073043;28;20021;-35
2021/11/07 05:40:08;;;;;;;32.27;23.83;;;;;;;9.31;100.00;101562.75;5073265;28;20051;-35
2021/11/07 05:42:34;;;;;;;35.92;24.05;;;;;;;9.34;100.00;101550.75;5072644;28;20032;-35
2021/11/07 05:45:00;;;;;;;34.78;25.77;;;;;;;9.41;100.00;101563.19;5072519;28;20040;-35
2021/11/07 05:47:27;;;;;;;37.22;24.38;;;;;;;9.39;100.00;101553.66;5072337;28;20452;-35
2021/11/07 05:49:52;;;;;;;;;;;;;;;9.42;100.00;101556.78;5073267;28;20036;-35
2021/11/07 05:52:17;;;;;;;29.25;21.83;;;;;;;9.41;100.00;101552.41;5072632;28;19913;-35
2021/11/07 05:54:43;;;;;;;35.27;23.03;;;;;;;9.37;100.00;101545.78;5073302;28;20021;-35
2021/11/07 05:57:10;;;;;;;40.63;21.95;;;;;;;9.38;100.00;101552.81;5072560;28;20040;-35
2021/11/07 05:59:35;;;;;;;31.20;21.98;;;;;;;9.44;100.00;101560.09;5072563;28;20033;-35
2021/11/07 06:02:01;;;;;;;32.93;21.67;;;;;;;9.45;100.00;101567.16;5072486;28;20029;-35
2021/11/07 06:04:26;;;;;;;29.75;19.55;;;;;;;9.49;100.00;101567.56;5072287;28;20060;-35
2021/11/07 06:06:51;;;;;;;31.20;19.03;;;;;;;9.40;100.00;101548.03;5072766;28;20051;-35
2021/11/07 06:09:17;;;;;;;38.17;19.87;;;;;;;9.50;100.00;101578.16;5072309;28;20095;-35
2021/11/07 06:11:42;;;;;;;32.63;18.98;;;;;;;9.51;100.00;101579.00;5072476;28;20029;-36
2021/11/07 06:14:08;;;;;;;34.20;18.00;;;;;;;9.52;100.00;101570.72;5072804;28;20025;-35
2021/11/07 06:16:33;;;;;;;23.73;15.73;;;;;;;9.47;100.00;101567.78;5073801;28;20422;-35
2021/11/07 06:18:58;;;;;;;30.40;15.63;;;;;;;9.55;100.00;101572.16;5075370;28;20036;-35
2021/11/07 06:21:24;;;;;;;29.87;14.67;;;;;;;9.56;100.00;101571.09;5075964;28;20035;-35
2021/11/07 06:23:50;;;;;;;24.63;13.73;;;;;;;9.55;100.00;101581.06;5076159;28;20025;-36
2021/11/07 06:26:15;;;;;;;24.52;12.80;;;;;;;9.52;100.00;101584.19;5075342;28;20037;-35
2021/11/07 06:28:41;;;;;;;26.85;12.50;;;;;;;9.57;100.00;101597.09;5075460;28;20033;-35
2021/11/07 06:31:08;;;;;;;24.70;12.00;;;;;;;9.58;100.00;101598.75;5075722;28;20032;-35
2021/11/07 06:33:34;;;;;;;22.75;10.32;;;;;;;9.48;100.00;101590.22;5076541;28;20025;-35
2021/11/07 06:36:00;;;;;;;19.02;9.40;;;;;;;9.48;100.00;101593.75;5075957;28;20423;-35
2021/11/07 06:38:26;;;;;;;27.63;8.32;;;;;;;9.55;100.00;101608.06;5075924;28;20504;-35
2021/11/07 06:40:52;;;;;;;22.23;7.53;;;;;;;9.51;100.00;101595.19;5075427;28;20059;-35
2021/11/07 06:43:17;;;;;;;18.05;6.15;;;;;;;9.45;100.00;101594.16;5076320;28;20020;-35
2021/11/07 06:45:43;;;;;;;16.65;4.97;;;;;;;9.41;100.00;101602.84;5075553;28;20041;-35
2021/11/07 06:48:08;;;;;;;20.10;5.40;;;;;;;9.34;100.00;101594.75;5075578;28;20036;-35
2021/11/07 06:50:34;;;;;;;19.70;4.30;;;;;;;9.33;99.48;101598.50;5075604;28;20071;-35
2021/11/07 06:52:59;;;;;;;21.73;3.97;;;;;;;9.27;99.47;101610.09;5075416;28;20021;-35
2021/11/07 06:55:25;;;;;;;18.37;4.87;;;;;;;9.22;98.90;101604.47;5075437;28;20491;-35
2021/11/07 06:57:51;;;;;;;16.15;3.55;;;;;;;9.17;98.04;101605.06;5075282;28;20060;-35
2021/11/07 07:00:21;;;;;;;16.67;4.13;;;;;;;9.16;96.17;101613.38;5075134;28;20079;-35
2021/11/07 07:02:47;;;;;;;13.98;4.00;;;;;;;9.14;95.99;101604.69;5075044;28;20035;-35
2021/11/07 07:05:14;;;;;;;19.33;3.97;;;;;;;9.10;94.98;101612.34;5075273;28;20058;-35
2021/11/07 07:07:45;;;;;;;20.17;3.67;;;;;;;9.05;95.12;101617.50;5075054;28;20764;-35
2021/11/07 07:10:16;;;;;;;16.05;3.72;;;;;;;8.98;94.75;101608.56;5075524;28;20461;-35
2021/11/07 07:12:47;;;;;;;16.52;4.18;;;;;;;8.97;95.56;101623.91;5076080;28;20029;-35
2021/11/07 07:15:18;;;;;;;18.70;4.10;;;;;;;8.98;96.30;101635.56;5075795;28;20031;-35
2021/11/07 07:17:57;;;;;;;21.98;4.57;;;;;;;8.87;95.57;101623.44;5075168;28;20029;-35
2021/11/07 07:28:33;;;;;;;18.92;3.92;;;;;;;8.90;94.60;101635.72;5074930;28;20035;-35
2021/11/07 07:33:50;;;;;;;18.30;3.88;;;;;;;8.92;93.53;101639.84;5075140;28;20052;-35
2021/11/07 07:36:15;;;;;;;21.30;3.70;;;;;;;9.03;93.18;101657.34;5075344;28;20433;-36
2021/11/07 07:38:41;;;;;;;18.97;4.20;;;;;;;8.97;92.39;101639.25;5074825;28;20055;-35
2021/11/07 07:41:06;;;;;;;21.53;4.13;;;;;;;9.08;92.43;101654.88;5074673;28;20025;-35
2021/11/07 07:43:33;;;;;;;17.77;4.40;;;;;;;9.10;92.24;101639.31;5073259;28;20028;-35
2021/11/07 07:46:03;;;;;;;25.27;5.68;;;;;;;9.14;91.37;101655.94;5074513;28;20025;-35
2021/11/07 07:48:29;;;;;;;21.38;5.65;;;;;;;9.14;90.97;101645.16;5074578;28;20083;-35
2021/11/07 07:50:55;;;;;;;18.10;4.68;;;;;;;9.12;91.87;101639.09;5074359;28;20052;-35
2021/11/07 07:53:23;;;;;;;21.23;4.30;;;;;;;9.08;91.31;101641.41;5074682;28;20079;-35
2021/11/07 07:55:50;;;;;;;20.45;4.00;;;;;;;9.13;90.35;101654.28;5074109;28;20028;-35
2021/11/07 07:58:16;;;;;;;13.82;3.38;;;;;;;9.16;90.92;101653.88;5074255;28;20029;-35
2021/11/07 08:00:41;;;;;;;20.27;4.13;;;;;;;9.20;89.98;101660.53;5074315;28;20479;-35
2021/11/07 08:03:07;;;;;;;18.70;4.83;;;;;;;9.22;89.66;101653.91;5074357;28;20474;-35
2021/11/07 08:05:32;;;;;;;17.00;4.77;;;;;;;9.26;90.78;101659.72;5074224;28;20024;-35
2021/11/07 08:07:57;;;;;;;17.20;4.17;;;;;;;9.28;89.77;101661.19;5074543;28;20035;-35
2021/11/07 08:10:23;;;;;;;20.20;4.27;;;;;;;9.25;91.30;101658.06;5073832;28;20131;-36
2021/11/07 08:12:48;;;;;;;17.00;3.73;;;;;;;9.31;90.51;101664.50;5073517;28;20056;-35
2021/11/07 08:15:14;;;;;;;16.15;3.55;;;;;;;9.30;90.71;101666.38;5073813;28;20122;-35
2021/11/07 08:17:40;;;;;;;20.17;4.32;;;;;;;9.31;90.36;101656.41;5074054;28;20031;-35
2021/11/07 08:20:08;;;;;;;16.80;4.07;;;;;;;9.31;89.79;101665.34;5074017;28;20101;-35
2021/11/07 08:22:34;;;;;;;16.25;3.95;;;;;;;9.36;88.88;101665.56;5074189;28;20458;-35
2021/11/07 08:25:09;;;;;;;;;;;;;;;9.42;90.87;101675.56;5074869;28;20024;-35
2021/11/07 08:27:34;;;;;;;18.92;3.53;;;;;;;9.30;88.51;101658.28;5074643;28;20390;-35
2021/11/07 08:30:01;;;;;;;17.90;4.22;;;;;;;9.35;88.72;101661.19;5073759;28;20033;-36
2021/11/07 08:32:26;;;;;;;;;;;;;;;9.42;90.94;101672.88;5074883;28;20108;-35
2021/11/07 08:34:52;;;;;;;20.02;4.07;;;;;;;9.29;90.36;101667.41;5073938;28;19952;-35
2021/11/07 08:37:19;;;;;;;19.10;5.03;;;;;;;9.35;88.73;101672.00;5074435;28;20029;-36
2021/11/07 08:39:49;;;;;;;18.05;4.00;;;;;;;9.24;88.30;101649.13;5073207;28;20078;-35
2021/11/07 09:01:44;;;;;;;15.38;3.72;;;;;;;9.26;87.12;101646.22;5031344;28;20042;-35
2021/11/07 09:09:21;;;;;;;17.25;3.90;;;;;;;9.59;86.18;101665.22;5030686;28;20504;-35
2021/11/07 09:11:51;;;;;;;20.08;6.32;;;;;;;9.72;87.24;101651.75;5030786;28;20500;-35
2021/11/07 09:14:20;;;;;;;20.02;4.60;;;;;;;9.78;84.87;101669.00;5030694;28;20572;-35
2021/11/07 09:16:48;;;;;;;14.77;3.50;;;;;;;9.80;85.50;101669.59;5030622;28;20045;-36
2021/11/07 09:19:18;;;;;;;15.35;4.32;;;;;;;9.79;84.74;101673.34;5031484;28;20045;-35
2021/11/07 09:21:46;;;;;;;17.65;3.58;;;;;;;9.80;85.11;101681.22;5030953;28;20052;-36
2021/11/07 09:24:23;;;;;;;16.65;3.80;;;;;;;9.83;84.67;101671.06;5031263;28;20117;-35
2021/11/07 09:26:49;;;;;;;16.55;3.65;;;;;;;9.88;85.36;101676.69;5030957;28;20148;-35
2021/11/07 09:35:34;;;;;;;19.27;4.15;;;;;;;10.06;84.08;101669.63;4981902;28;20034;-35
2021/11/07 09:38:00;;;;;;;16.05;4.10;;;;;;;10.23;84.57;101669.22;5008858;28;20038;-35
2021/11/07 09:40:28;;;;;;;19.48;3.85;;;;;;;10.39;82.46;101668.81;5011067;28;20478;-35
2021/11/07 09:48:22;;;;;;;17.98;3.47;;;;;;;10.70;81.40;101676.28;5010949;28;20046;-35
2021/11/07 09:50:49;;;;;;;15.65;4.20;;;;;;;10.78;81.91;101672.47;5011177;28;20074;-35
2021/11/07 09:53:16;;;;;;;17.50;4.35;;;;;;;10.84;82.11;101677.06;5014301;28;20031;-35
2021/11/07 09:55:43;;;;;;;19.25;4.18;;;;;;;10.79;80.71;101672.28;5014673;28;20120;-35
2021/11/07 09:58:09;;;;;;;18.65;3.63;;;;;;;10.75;81.22;101671.06;5015153;28;20030;-35
2021/11/07 10:00:42;;;;;;;21.73;4.10;;;;;;;10.69;81.60;101661.09;5015053;28;20350;-35
2021/11/07 10:03:10;;;;;;;17.90;3.85;;;;;;;10.70;80.35;101670.03;5014913;28;20096;-36
2021/11/07 10:05:40;;;;;;;12.80;3.42;;;;;;;10.66;81.36;101677.72;5014503;28;20096;-35
2021/11/07 10:08:07;;;;;;;17.50;3.75;;;;;;;10.64;79.38;101677.13;5033928;28;20128;-35
2021/11/07 10:10:37;;;;;;;18.52;3.88;;;;;;;10.65;81.42;101667.97;5076560;28;20036;-35
2021/11/07 10:13:11;;;;;;;17.77;4.05;;;;;;;10.64;80.75;101674.41;5076148;28;20033;-35
2021/11/07 10:15:45;;;;;;;18.15;3.60;;;;;;;10.48;77.96;101645.91;5076112;28;20149;-35
2021/11/07 10:18:21;;;;;;;19.02;3.95;;;;;;;10.66;79.61;101664.19;5076094;28;20052;-36
2021/11/07 10:20:48;;;;;;;21.02;4.05;;;;;;;10.72;78.00;101667.94;5076069;28;20024;-35
2021/11/07 10:23:22;;;;;;;19.30;3.92;;;;;;;10.72;78.09;101676.88;5076405;28;20040;-35
2021/11/07 10:28:48;;;;;;;13.73;2.97;;;;;;;10.74;77.02;101666.69;5033696;28;20045;-35
2021/11/07 10:31:33;;;;;;;16.98;3.58;;;;;;;10.84;78.74;101682.47;5033510;28;20041;-35
2021/11/07 10:53:51;;;;;;;17.50;4.22;;;;;;;10.66;76.42;101680.44;5033834;28;20516;-36
2021/11/07 10:56:17;;;;;;;19.17;4.55;;;;;;;10.62;75.57;101681.06;5033429;28;20099;-35
2021/11/07 10:58:46;;;;;;;18.97;4.57;;;;;;;10.51;76.99;101672.56;5033759;28;20124;-35
2021/11/07 11:01:19;;;;;;;16.65;3.95;;;;;;;10.50;77.81;101686.28;5033002;28;20357;-35
2021/11/07 11:03:49;;;;;;;23.48;4.55;;;;;;;10.37;77.99;101679.00;5032623;28;20034;-35
2021/11/07 11:06:16;;;;;;;13.63;3.60;;;;;;;10.35;79.12;101670.28;5063389;28;20040;-35
2021/11/07 11:08:54;;;;;;;27.83;5.85;;;;;;;10.41;78.74;101677.56;5075493;28;20025;-35
2021/11/07 11:14:23;;;;;;;18.80;3.88;;;;;;;10.25;78.42;101656.38;5075765;28;20033;-35
2021/11/07 11:16:55;;;;;;;16.42;4.45;;;;;;;10.38;79.26;101667.16;5075107;28;20039;-36
2021/11/07 11:20:01;;;;;;;22.90;4.07;;;;;;;10.58;79.13;101676.06;5074427;28;20059;-35
2021/11/07 11:22:49;;;;;;;21.52;4.22;;;;;;;10.77;78.68;101670.81;5075559;28;20025;-35
2021/11/07 11:31:04;;;;;;;21.20;4.50;;;;;;;11.06;76.24;101664.91;5052851;28;20048;-35
2021/11/07 11:33:42;;;;;;;17.83;4.05;;;;;;;11.18;76.34;101656.13;5052881;28;20392;-36
2021/11/07 11:41:26;;;;;;;17.08;3.47;;;;;;;11.39;73.94;101652.28;5052150;28;20033;-36
2021/11/07 11:43:54;;;;;;;15.63;3.67;;;;;;;11.31;73.65;101656.88;5052959;28;20068;-36
2021/11/07 11:46:47;;;;;;;12.30;3.25;;;;;;;11.32;74.15;101663.97;5051856;28;20472;-36
2021/11/07 12:08:11;;;;;;;17.80;3.20;;;;;;;10.90;73.71;101653.75;5064581;28;20493;-36
2021/11/07 12:10:43;;;;;;;12.93;3.05;;;;;;;10.86;73.03;101658.75;5074369;28;20140;-36
2021/11/07 12:13:32;;;;;;;16.90;3.70;;;;;;;10.95;74.17;101643.94;5074408;28;20430;-36
2021/11/07 12:16:04;;;;;;;14.30;3.20;;;;;;;10.99;73.08;101647.88;5073469;28;20029;-36
2021/11/07 12:18:29;;;;;;;15.27;3.63;;;;;;;11.08;74.01;101648.47;5073818;28;20044;-37
2021/11/07 12:20:59;;;;;;;12.73;3.43;;;;;;;11.03;73.24;101651.81;5072098;28;20094;-37
2021/11/07 12:23:31;;;;;;;14.73;3.65;;;;;;;10.99;73.30;101657.88;5074234;28;20047;-37
2021/11/07 12:25:58;;;;;;;12.55;3.78;;;;;;;10.84;73.86;101633.78;5073666;28;20472;-36
2021/11/07 12:28:43;;;;;;;17.23;3.28;;;;;;;10.94;74.02;101661.22;5073903;28;20472;-36
2021/11/07 12:31:09;;;;;;;20.98;4.40;;;;;;;10.94;72.95;101647.69;5073611;28;20428;-36
2021/11/07 12:33:55;;;;;;;17.57;4.07;;;;;;;10.95;72.60;101640.41;5073853;28;20032;-36
2021/11/07 12:41:38;;;;;;;18.25;4.30;;;;;;;10.76;73.38;101653.78;5073909;28;20039;-36
2021/11/07 12:44:05;;;;;;;20.17;3.60;;;;;;;10.77;72.75;101655.44;5073419;28;20033;-36
2021/11/07 12:49:13;;;;;;;18.02;3.78;;;;;;;10.67;74.34;101649.63;5073288;28;20036;-36
2021/11/07 12:51:47;;;;;;;26.85;5.00;;;;;;;10.70;74.38;101654.63;5073848;28;20020;-36
2021/11/07 12:54:15;;;;;;;18.00;4.20;;;;;;;10.70;73.82;101653.81;5073838;28;20467;-36
2021/11/07 12:56:40;;;;;;;18.95;4.72;;;;;;;10.70;72.32;101648.38;5073938;28;20033;-36
2021/11/07 12:59:15;;;;;;;20.87;4.23;;;;;;;10.74;72.13;101652.34;5073463;28;20039;-36
2021/11/07 13:02:02;;;;;;;11.80;3.45;;;;;;;10.77;71.24;101651.91;5073090;28;20039;-36
2021/11/07 13:04:44;;;;;;;13.00;3.67;;;;;;;10.86;69.99;101647.91;5073109;28;20380;-36
2021/11/07 13:07:17;;;;;;;17.38;3.78;;;;;;;10.93;70.86;101637.91;5073408;28;20383;-37
2021/11/07 13:09:47;;;;;;;19.58;4.25;;;;;;;10.89;70.95;101650.19;5073344;28;20106;-36
2021/11/07 13:12:26;;;;;;;17.88;3.53;;;;;;;10.85;69.89;101645.44;5073056;28;20029;-36
2021/11/07 13:15:14;;;;;;;13.90;3.78;;;;;;;10.92;70.23;101665.16;5073534;28;20033;-36
2021/11/07 13:17:55;;;;;;;18.20;4.32;;;;;;;10.77;69.70;101644.59;5072702;28;20032;-36
2021/11/07 13:20:42;;;;;;;17.13;3.75;;;;;;;10.77;69.56;101654.59;5073166;28;20085;-36
2021/11/07 13:29:09;;;;;;;18.07;4.17;;;;;;;10.50;70.67;101637.63;5077112;28;20056;-36
2021/11/07 13:31:11;;;;;;;17.20;3.85;;;;;;;10.50;71.12;101649.25;5076543;28;20291;-36
2021/11/07 13:33:39;;;;;;;15.43;3.92;;;;;;;10.53;71.89;101648.81;5076619;28;20029;-36
2021/11/07 13:36:05;;;;;;;14.55;3.42;;;;;;;10.52;70.73;101639.06;5076837;28;20020;-36
2021/11/07 13:38:38;;;;;;;19.02;3.92;;;;;;;10.65;71.87;101643.63;5077181;28;20032;-36
2021/11/07 13:41:16;;;;;;;16.13;4.25;;;;;;;10.83;71.76;101645.63;5077533;28;20352;-37
2021/11/07 13:43:48;;;;;;;17.75;4.05;;;;;;;10.92;70.43;101641.63;5077551;28;20036;-36
2021/11/07 13:46:15;;;;;;;24.17;3.80;;;;;;;10.94;70.78;101628.75;5076962;28;20025;-36
2021/11/07 13:48:42;;;;;;;23.40;4.55;;;;;;;11.03;70.98;101638.28;5077150;28;20028;-36
2021/11/07 13:51:09;;;;;;;17.10;4.68;;;;;;;11.05;70.31;101630.78;5076497;28;20031;-36
2021/11/07 13:53:39;;;;;;;14.95;3.72;;;;;;;11.08;70.68;101641.19;5077036;28;20020;-36
2021/11/07 13:56:08;;;;;;;19.58;4.20;;;;;;;11.06;70.70;101645.97;5076770;28;20052;-36
2021/11/07 13:58:38;;;;;;;17.98;4.00;;;;;;;11.04;70.24;101637.22;5076827;28;20032;-36
2021/11/07 14:01:11;;;;;;;21.55;4.93;;;;;;;10.98;69.95;101635.41;5076370;28;20032;-37
2021/11/07 14:03:37;;;;;;;20.58;4.30;;;;;;;11.07;70.75;101641.38;5076907;28;20036;-36